createdAt,value
2019-05-02T00:00:09.296Z,78.9105
2019-05-02T00:01:12.304Z,79.1150
2019-05-02T00:02:15.338Z,79.2676
2019-05-02T00:03:18.310Z,79.0433
2019-05-02T00:04:21.359Z,79.0921
2019-05-02T00:05:27.393Z,79.2706
2019-05-02T00:06:32.280Z,79.6521
2019-05-02T00:07:34.372Z,80.1175
2019-05-02T00:08:37.281Z,80.4700
2019-05-02T00:09:47.367Z,80.6165
2019-05-02T00:10:48.332Z,80.5997
2019-05-02T00:11:58.609Z,80.7813
2019-05-02T00:12:59.374Z,80.7996
2019-05-02T00:14:04.279Z,81.1536
2019-05-02T00:15:07.298Z,80.9613
2019-05-02T00:16:14.025Z,81.2436
2019-05-02T00:17:20.435Z,81.6236
2019-05-02T00:18:26.333Z,81.6892
2019-05-02T00:19:29.292Z,81.8250
2019-05-02T00:20:31.291Z,81.7853
2019-05-02T00:21:38.275Z,81.9944
2019-05-02T00:22:42.300Z,82.0737
2019-05-02T00:23:45.315Z,81.7838
2019-05-02T00:24:48.299Z,81.7884
2019-05-02T00:25:52.681Z,81.7075
2019-05-02T00:27:01.368Z,82.3560
2019-05-02T00:28:07.795Z,82.5071
2019-05-02T00:29:13.340Z,82.6825
2019-05-02T00:30:16.312Z,82.8794
2019-05-02T00:31:19.289Z,83.1662
2019-05-02T00:32:23.621Z,83.1983
2019-05-02T00:33:29.139Z,83.0060
2019-05-02T00:34:34.314Z,83.2670
2019-05-02T00:35:40.887Z,83.5798
2019-05-02T00:36:45.286Z,83.3631
2019-05-02T00:37:48.282Z,83.2578
2019-05-02T00:38:51.325Z,83.3493
2019-05-02T00:39:54.289Z,83.7949
2019-05-02T00:41:01.731Z,83.8270
2019-05-02T00:42:12.339Z,83.6942
2019-05-02T00:43:13.294Z,83.6606
2019-05-02T00:44:16.299Z,83.6072
2019-05-02T00:45:23.945Z,83.8026
2019-05-02T00:46:30.355Z,83.8041
2019-05-02T00:47:35.336Z,83.8911
2019-05-02T00:48:38.297Z,83.9368
2019-05-02T00:49:41.343Z,84.1093
2019-05-02T00:50:45.264Z,84.3259
2019-05-02T00:51:52.289Z,84.3198
2019-05-02T00:52:55.304Z,84.5853
2019-05-02T00:53:58.292Z,84.4434
2019-05-02T00:55:01.345Z,84.2847
2019-05-02T00:56:05.137Z,84.1108
2019-05-02T00:57:14.954Z,84.1428
2019-05-02T00:58:19.265Z,84.0406
2019-05-02T00:59:22.284Z,84.1047
2019-05-02T01:00:25.323Z,84.4678
2019-05-02T01:01:29.724Z,84.5228
2019-05-02T01:02:35.843Z,84.5594
2019-05-02T01:03:42.270Z,84.6174
2019-05-02T01:04:45.327Z,84.8188
2019-05-02T01:05:48.307Z,84.9851
2019-05-02T01:06:51.361Z,85.1133
2019-05-02T01:07:56.141Z,85.1179
2019-05-02T01:09:05.860Z,85.3330
2019-05-02T01:10:10.286Z,85.4368
2019-05-02T01:11:13.290Z,85.5619
2019-05-02T01:12:26.117Z,85.6931
2019-05-02T01:13:24.333Z,85.4520
2019-05-02T01:14:31.643Z,85.6291
2019-05-02T01:15:39.028Z,85.7435
2019-05-02T01:16:43.278Z,85.7496
2019-05-02T01:17:46.315Z,85.8167
2019-05-02T01:18:49.330Z,85.5253
2019-05-02T01:19:52.743Z,85.4887
2019-05-02T01:20:58.126Z,85.7206
2019-05-02T01:22:03.277Z,85.7206
2019-05-02T01:23:06.325Z,85.5009
2019-05-02T01:24:09.288Z,85.5467
2019-05-02T01:25:15.730Z,85.9541
2019-05-02T01:26:24.280Z,86.4485
2019-05-02T01:27:28.302Z,86.1021
2019-05-02T01:28:31.329Z,85.8686
2019-05-02T01:29:34.316Z,85.7618
2019-05-02T01:30:42.239Z,86.0182
2019-05-02T01:31:45.290Z,86.0517
2019-05-02T01:32:48.306Z,86.2120
2019-05-02T01:33:51.302Z,86.3630
2019-05-02T01:34:56.214Z,86.3432
2019-05-02T01:36:01.635Z,86.7521
2019-05-02T01:37:07.299Z,87.0253
2019-05-02T01:38:10.301Z,87.3655
2019-05-02T01:39:13.335Z,87.1366
2019-05-02T01:40:17.685Z,87.1809
2019-05-02T01:41:24.063Z,87.2358
2019-05-02T01:42:39.571Z,87.2328
2019-05-02T01:43:38.281Z,87.7913
2019-05-02T01:44:41.334Z,87.7668
2019-05-02T01:45:46.587Z,87.4601
2019-05-02T01:46:49.315Z,87.3793
2019-05-02T01:47:51.282Z,87.4739
2019-05-02T01:48:54.288Z,87.1870
2019-05-02T01:49:59.145Z,87.1550
2019-05-02T01:51:04.345Z,87.2770
2019-05-02T01:52:10.292Z,87.3365
2019-05-02T01:53:13.293Z,87.2740
2019-05-02T01:54:16.274Z,87.4418
2019-05-02T01:55:21.184Z,87.6661
2019-05-02T01:56:28.437Z,87.5746
2019-05-02T01:57:33.283Z,87.7165
2019-05-02T01:58:35.303Z,88.0568
2019-05-02T01:59:38.272Z,88.1025
2019-05-02T02:00:44.753Z,87.9561
2019-05-02T02:01:53.119Z,88.0690
2019-05-02T02:02:57.319Z,88.1529
2019-05-02T02:04:00.279Z,88.2567
2019-05-02T02:05:03.318Z,88.0018
2019-05-02T02:06:08.143Z,88.0827
2019-05-02T02:07:15.075Z,88.2475
2019-05-02T02:08:21.326Z,88.0934
2019-05-02T02:09:24.313Z,87.8447
2019-05-02T02:10:27.314Z,87.8508
2019-05-02T02:11:33.898Z,87.8874
2019-05-02T02:12:41.252Z,87.9286
2019-05-02T02:13:46.284Z,87.7302
2019-05-02T02:14:53.372Z,87.7394
2019-05-02T02:16:00.147Z,87.6844
2019-05-02T02:17:05.306Z,88.0415
2019-05-02T02:18:08.267Z,87.9881
2019-05-02T02:19:11.305Z,88.1239
2019-05-02T02:20:14.130Z,88.2521
2019-05-02T02:21:20.172Z,88.1422
2019-05-02T02:22:26.291Z,88.2582
2019-05-02T02:23:29.286Z,88.0201
2019-05-02T02:24:32.298Z,87.8691
2019-05-02T02:25:36.329Z,87.8416
2019-05-02T02:26:43.556Z,87.8218
2019-05-02T02:27:50.252Z,87.6860
2019-05-02T02:28:53.320Z,87.6936
2019-05-02T02:29:56.286Z,87.5212
2019-05-02T02:31:04.968Z,87.4113
2019-05-02T02:32:07.312Z,87.3732
2019-05-02T02:33:10.306Z,87.2557
2019-05-02T02:34:13.281Z,87.4601
2019-05-02T02:35:16.298Z,87.3732
2019-05-02T02:36:29.948Z,87.4159
2019-05-02T02:37:27.294Z,87.3930
2019-05-02T02:38:33.662Z,87.8325
2019-05-02T02:39:38.271Z,87.7638
2019-05-02T02:40:40.289Z,87.6158
2019-05-02T02:41:45.380Z,87.6753
2019-05-02T02:42:50.330Z,87.7409
2019-05-02T02:43:54.824Z,87.8325
2019-05-02T02:45:01.326Z,87.7501
2019-05-02T02:46:04.301Z,87.7531
2019-05-02T02:47:12.117Z,87.8218
2019-05-02T02:48:15.337Z,88.3757
2019-05-02T02:49:21.248Z,88.5008
2019-05-02T02:50:26.308Z,88.9494
2019-05-02T02:51:29.281Z,88.4276
2019-05-02T02:52:37.941Z,87.6905
2019-05-02T02:53:40.297Z,87.6982
2019-05-02T02:54:44.931Z,87.8004
2019-05-02T02:55:48.273Z,87.9362
2019-05-02T02:56:51.332Z,88.2292
2019-05-02T02:57:58.469Z,88.3818
2019-05-02T02:59:02.334Z,88.3391
2019-05-02T03:00:07.639Z,88.6320
2019-05-02T03:01:27.372Z,88.4092
2019-05-02T03:02:23.297Z,88.5008
2019-05-02T03:03:27.931Z,88.5695
2019-05-02T03:04:33.322Z,88.7755
2019-05-02T03:05:36.322Z,88.9708
2019-05-02T03:06:45.070Z,88.7602
2019-05-02T03:07:47.298Z,88.6564
2019-05-02T03:08:50.302Z,88.7297
2019-05-02T03:09:53.270Z,88.9632
2019-05-02T03:10:56.322Z,88.9570
2019-05-02T03:12:02.042Z,88.9891
2019-05-02T03:13:07.319Z,89.1402
2019-05-02T03:14:10.283Z,89.1646
2019-05-02T03:15:13.292Z,89.1646
2019-05-02T03:16:16.332Z,89.1997
2019-05-02T03:17:25.802Z,89.2912
2019-05-02T03:18:27.365Z,89.2683
2019-05-02T03:19:30.285Z,89.2744
2019-05-02T03:20:40.113Z,89.2042
2019-05-02T03:21:41.287Z,89.2836
2019-05-02T03:22:43.561Z,89.1737
2019-05-02T03:23:46.289Z,89.1051
2019-05-02T03:24:49.336Z,89.1829
2019-05-02T03:25:52.326Z,89.4667
2019-05-02T03:26:57.851Z,89.3278
2019-05-02T03:28:01.307Z,89.0990
2019-05-02T03:29:04.280Z,88.8899
2019-05-02T03:30:07.332Z,89.3828
2019-05-02T03:31:24.246Z,89.6361
2019-05-02T03:32:32.172Z,89.8543
2019-05-02T03:33:26.285Z,89.9916
2019-05-02T03:34:44.957Z,90.1747
2019-05-02T03:35:43.923Z,89.9199
2019-05-02T03:36:45.335Z,89.5445
2019-05-02T03:37:51.485Z,89.5674
2019-05-02T03:38:56.305Z,89.3202
2019-05-02T03:40:00.595Z,89.3645
2019-05-02T03:41:04.293Z,89.2363
2019-05-02T03:42:07.345Z,88.8716
2019-05-02T03:43:10.297Z,89.1600
2019-05-02T03:44:24.596Z,88.5725
2019-05-02T03:45:21.279Z,88.9860
2019-05-02T03:46:24.320Z,88.8533
2019-05-02T03:47:27.325Z,88.5542
2019-05-02T03:48:30.295Z,88.7938
2019-05-02T03:49:33.277Z,89.0211
2019-05-02T03:50:36.291Z,89.1005
2019-05-02T03:51:39.329Z,88.7480
2019-05-02T03:52:44.495Z,88.3482
2019-05-02T03:53:49.332Z,88.1483
2019-05-02T03:54:52.704Z,88.0644
2019-05-02T03:55:56.287Z,88.2582
2019-05-02T03:56:59.269Z,88.2628
2019-05-02T03:58:13.335Z,88.0430
2019-05-02T03:59:10.279Z,88.3726
2019-05-02T04:00:20.756Z,88.3391
2019-05-02T04:01:21.279Z,88.3436
2019-05-02T04:02:24.332Z,88.1285
2019-05-02T04:03:27.324Z,88.6015
2019-05-02T04:04:30.299Z,88.7327
2019-05-02T04:05:33.855Z,88.6320
2019-05-02T04:06:41.288Z,89.0303
2019-05-02T04:07:44.311Z,89.2241
2019-05-02T04:08:47.285Z,89.3477
2019-05-02T04:09:50.336Z,89.6345
2019-05-02T04:10:59.440Z,89.5857
2019-05-02T04:12:01.305Z,89.5430
2019-05-02T04:13:04.267Z,89.7322
2019-05-02T04:14:14.642Z,89.9367
2019-05-02T04:15:15.377Z,90.0618
2019-05-02T04:16:18.287Z,90.2892
2019-05-02T04:17:21.313Z,90.2357
2019-05-02T04:18:24.289Z,89.9748
2019-05-02T04:19:28.535Z,90.2113
2019-05-02T04:20:35.290Z,90.3258
2019-05-02T04:21:38.320Z,90.4463
2019-05-02T04:22:42.935Z,90.2724
2019-05-02T04:23:49.324Z,89.9596
2019-05-02T04:24:56.705Z,89.0257
2019-05-02T04:26:00.349Z,89.4194
2019-05-02T04:27:03.269Z,88.9632
2019-05-02T04:28:12.121Z,88.8533
2019-05-02T04:29:14.309Z,88.6839
2019-05-02T04:30:17.279Z,88.7892
2019-05-02T04:31:24.720Z,88.5771
2019-05-02T04:32:29.296Z,88.8899
2019-05-02T04:33:34.644Z,88.8609
2019-05-02T04:34:39.278Z,88.8930
2019-05-02T04:35:42.294Z,89.1035
2019-05-02T04:36:46.603Z,88.8334
2019-05-02T04:37:50.290Z,88.9632
2019-05-02T04:38:52.810Z,88.7648
2019-05-02T04:39:59.150Z,88.5817
2019-05-02T04:41:04.288Z,88.2490
2019-05-02T04:42:13.080Z,88.1437
2019-05-02T04:43:18.225Z,87.8950
2019-05-02T04:44:21.291Z,87.4235
2019-05-02T04:45:29.335Z,87.6249
2019-05-02T04:46:32.274Z,87.4189
2019-05-02T04:47:35.348Z,87.4525
2019-05-02T04:48:43.730Z,87.5837
2019-05-02T04:49:49.096Z,87.8264
2019-05-02T04:50:59.431Z,87.6616
2019-05-02T04:52:10.646Z,87.4891
2019-05-02T04:53:10.301Z,87.3960
2019-05-02T04:54:22.067Z,87.4601
2019-05-02T04:55:28.200Z,87.4022
2019-05-02T04:56:29.324Z,87.1962
2019-05-02T04:57:37.083Z,86.9718
2019-05-02T04:58:40.824Z,87.1351
2019-05-02T04:59:44.304Z,87.2236
2019-05-02T05:00:53.592Z,87.3320
2019-05-02T05:01:58.452Z,87.0314
2019-05-02T05:03:08.422Z,86.8849
2019-05-02T05:04:11.342Z,86.9566
2019-05-02T05:05:17.369Z,86.9337
2019-05-02T05:06:22.299Z,86.7277
2019-05-02T05:07:25.288Z,86.3020
2019-05-02T05:08:31.946Z,86.5919
2019-05-02T05:09:35.312Z,86.6773
2019-05-02T05:10:41.595Z,87.0253
2019-05-02T05:11:48.123Z,86.9062
2019-05-02T05:12:51.296Z,86.7643
2019-05-02T05:13:57.678Z,86.0365
2019-05-02T05:15:02.311Z,86.2242
2019-05-02T05:16:08.143Z,85.4795
2019-05-02T05:17:13.280Z,85.7023
2019-05-02T05:18:17.649Z,85.8549
2019-05-02T05:19:23.069Z,85.8854
2019-05-02T05:20:28.332Z,85.5604
2019-05-02T05:21:31.319Z,85.9083
2019-05-02T05:22:38.564Z,86.1784
2019-05-02T05:23:42.301Z,85.8534
2019-05-02T05:24:45.319Z,86.0960
2019-05-02T05:25:50.571Z,85.8167
2019-05-02T05:26:57.831Z,85.7404
2019-05-02T05:28:05.813Z,85.9678
2019-05-02T05:29:09.299Z,85.8671
2019-05-02T05:30:15.664Z,85.7679
2019-05-02T05:31:23.986Z,85.8763
2019-05-02T05:32:28.345Z,86.0655
2019-05-02T05:33:31.292Z,86.1341
2019-05-02T05:34:34.305Z,85.9602
2019-05-02T05:35:38.558Z,85.8763
2019-05-02T05:36:41.357Z,86.1097
2019-05-02T05:37:51.485Z,86.0136
2019-05-02T05:38:52.316Z,86.3310
2019-05-02T05:39:55.298Z,86.3264
2019-05-02T05:41:02.880Z,86.3981
2019-05-02T05:42:08.405Z,86.3127
2019-05-02T05:43:15.862Z,86.5263
2019-05-02T05:44:23.313Z,86.5919
2019-05-02T05:45:29.307Z,86.7735
2019-05-02T05:46:33.447Z,86.8070
2019-05-02T05:47:40.325Z,86.3859
2019-05-02T05:48:43.309Z,86.2074
2019-05-02T05:49:47.733Z,85.9602
2019-05-02T05:50:51.299Z,85.7588
2019-05-02T05:51:59.524Z,85.5833
2019-05-02T05:53:02.346Z,85.1072
2019-05-02T05:54:05.328Z,85.1850
2019-05-02T05:55:12.617Z,85.4612
2019-05-02T05:56:18.050Z,85.0217
2019-05-02T05:57:21.344Z,85.2354
2019-05-02T05:58:24.366Z,85.3284
2019-05-02T05:59:30.894Z,84.7150
2019-05-02T06:00:35.291Z,84.7562
2019-05-02T06:01:38.542Z,84.6372
2019-05-02T06:02:53.023Z,84.7288
2019-05-02T06:03:49.286Z,84.3626
2019-05-02T06:04:55.359Z,84.0085
2019-05-02T06:06:00.287Z,84.2435
2019-05-02T06:07:03.400Z,84.1749
2019-05-02T06:08:08.057Z,83.8758
2019-05-02T06:09:13.772Z,83.6973
2019-05-02T06:10:17.310Z,83.9460
2019-05-02T06:11:21.791Z,83.9811
2019-05-02T06:12:26.186Z,83.6759
2019-05-02T06:13:32.328Z,84.1413
2019-05-02T06:14:35.335Z,83.4791
2019-05-02T06:15:39.095Z,84.0726
2019-05-02T06:16:46.617Z,83.8483
2019-05-02T06:17:51.293Z,82.7100
2019-05-02T06:18:54.355Z,80.1785
2019-05-02T06:19:57.313Z,79.7925
2019-05-02T06:21:03.433Z,80.7462
2019-05-02T06:22:08.310Z,80.0397
2019-05-02T06:23:11.288Z,79.5041
2019-05-02T06:24:15.681Z,79.3484
2019-05-02T06:25:32.884Z,78.7274
2019-05-02T06:26:27.314Z,77.5998
2019-05-02T06:27:30.475Z,78.0346
2019-05-02T06:28:36.255Z,77.9706
2019-05-02T06:29:42.299Z,77.1878
2019-05-02T06:30:45.309Z,76.7300
2019-05-02T06:31:48.311Z,76.6400
2019-05-02T06:32:54.949Z,77.5357
2019-05-02T06:34:02.124Z,78.1598
2019-05-02T06:35:07.296Z,79.0982
2019-05-02T06:36:10.333Z,79.4781
2019-05-02T06:37:15.306Z,79.1898
2019-05-02T06:38:21.541Z,79.5651
2019-05-02T06:39:27.113Z,79.8718
2019-05-02T06:40:34.337Z,79.4949
2019-05-02T06:41:37.282Z,79.4263
2019-05-02T06:42:40.326Z,79.4965
2019-05-02T06:43:46.635Z,78.8998
2019-05-02T06:44:54.901Z,78.7732
2019-05-02T06:45:59.352Z,78.6587
2019-05-02T06:47:04.415Z,78.8510
2019-05-02T06:48:08.305Z,77.9263
2019-05-02T06:49:11.268Z,78.1994
2019-05-02T06:50:14.318Z,78.4878
2019-05-02T06:51:20.810Z,77.9110
2019-05-02T06:52:27.288Z,77.9477
2019-05-02T06:53:34.972Z,77.6745
2019-05-02T06:54:38.300Z,77.7234
2019-05-02T06:55:41.298Z,77.1252
2019-05-02T06:56:47.848Z,76.1669
2019-05-02T06:57:57.014Z,76.1395
2019-05-02T06:59:00.308Z,75.6420
2019-05-02T07:00:03.313Z,75.7977
2019-05-02T07:01:06.345Z,75.7977
2019-05-02T07:02:09.347Z,75.8572
2019-05-02T07:03:12.262Z,75.6786
2019-05-02T07:04:17.541Z,75.5413
2019-05-02T07:05:27.221Z,75.7427
2019-05-02T07:06:34.818Z,75.4498
2019-05-02T07:07:38.399Z,75.4269
2019-05-02T07:08:41.333Z,75.5230
2019-05-02T07:09:44.317Z,74.2901
2019-05-02T07:10:47.315Z,74.3954
2019-05-02T07:11:56.932Z,74.8699
2019-05-02T07:13:10.117Z,74.0246
2019-05-02T07:14:12.876Z,73.8445
2019-05-02T07:15:14.339Z,73.4112
2019-05-02T07:16:37.288Z,74.0932
2019-05-02T07:17:26.575Z,73.7118
2019-05-02T07:18:33.351Z,72.8923
2019-05-02T07:19:36.304Z,73.2921
2019-05-02T07:20:40.644Z,72.6635
2019-05-02T07:21:45.308Z,72.9381
2019-05-02T07:22:48.288Z,72.5322
2019-05-02T07:23:53.785Z,72.1614
2019-05-02T07:25:01.870Z,71.3008
2019-05-02T07:26:06.306Z,71.2505
2019-05-02T07:27:09.330Z,70.9102
2019-05-02T07:28:11.297Z,71.3603
2019-05-02T07:29:17.016Z,70.4433
2019-05-02T07:30:22.302Z,69.9687
2019-05-02T07:31:25.311Z,70.5638
2019-05-02T07:32:28.309Z,70.0832
2019-05-02T07:33:32.416Z,69.8756
2019-05-02T07:34:39.372Z,69.0837
2019-05-02T07:35:42.331Z,69.7948
2019-05-02T07:36:45.316Z,69.1066
2019-05-02T07:37:48.824Z,69.0669
2019-05-02T07:38:57.528Z,69.4743
2019-05-02T07:40:01.320Z,69.1493
2019-05-02T07:41:04.325Z,68.7877
2019-05-02T07:42:07.883Z,69.0333
2019-05-02T07:43:13.536Z,68.6122
2019-05-02T07:44:19.292Z,68.7221
2019-05-02T07:45:22.318Z,68.5664
2019-05-02T07:46:25.387Z,68.5206
2019-05-02T07:47:28.938Z,68.5802
2019-05-02T07:48:33.394Z,67.5563
2019-05-02T07:49:36.275Z,67.5090
2019-05-02T07:50:41.168Z,67.8401
2019-05-02T07:51:47.309Z,66.9963
2019-05-02T07:52:50.351Z,67.5334
2019-05-02T07:53:55.513Z,67.1717
2019-05-02T07:55:01.115Z,67.0558
2019-05-02T07:56:05.329Z,66.9184
2019-05-02T07:57:08.311Z,65.7328
2019-05-02T07:58:11.322Z,65.6016
2019-05-02T07:59:13.288Z,66.0716
2019-05-02T08:00:16.310Z,65.2171
2019-05-02T08:01:19.295Z,64.8508
2019-05-02T08:02:25.046Z,65.0233
2019-05-02T08:03:33.294Z,65.3681
2019-05-02T08:04:37.322Z,64.0070
2019-05-02T08:05:40.320Z,64.1367
2019-05-02T08:06:44.624Z,64.1215
2019-05-02T08:07:53.362Z,63.4226
2019-05-02T08:09:01.608Z,64.4053
2019-05-02T08:10:05.314Z,64.0269
2019-05-02T08:11:08.308Z,64.1764
2019-05-02T08:12:11.315Z,63.9933
2019-05-02T08:13:17.585Z,63.3387
2019-05-02T08:14:22.329Z,63.7324
2019-05-02T08:15:25.293Z,63.3707
2019-05-02T08:16:28.602Z,63.7613
2019-05-02T08:17:32.374Z,63.3066
2019-05-02T08:18:35.330Z,63.0655
2019-05-02T08:19:41.669Z,63.3722
2019-05-02T08:20:46.303Z,63.3753
2019-05-02T08:21:49.311Z,63.4226
2019-05-02T08:22:52.296Z,64.2542
2019-05-02T08:23:57.227Z,64.4511
2019-05-02T08:25:03.284Z,62.8717
2019-05-02T08:26:06.352Z,62.2965
2019-05-02T08:27:09.304Z,61.5442
2019-05-02T08:28:15.814Z,61.3794
2019-05-02T08:29:23.441Z,61.4984
2019-05-02T08:30:28.311Z,61.4115
2019-05-02T08:31:31.320Z,61.0864
2019-05-02T08:32:34.312Z,60.2960
2019-05-02T08:33:38.382Z,60.3082
2019-05-02T08:34:41.316Z,59.2920
2019-05-02T08:35:44.337Z,58.4085
2019-05-02T08:36:47.290Z,61.0590
2019-05-02T08:37:50.309Z,60.2853
2019-05-02T08:38:54.056Z,59.3195
2019-05-02T08:39:58.363Z,60.6119
2019-05-02T08:41:01.311Z,59.9741
2019-05-02T08:42:04.305Z,59.0875
2019-05-02T08:43:09.290Z,59.1089
2019-05-02T08:44:16.694Z,59.3973
2019-05-02T08:45:20.329Z,59.3576
2019-05-02T08:46:23.322Z,58.7335
2019-05-02T08:47:28.685Z,58.4955
2019-05-02T08:48:36.556Z,58.7564
2019-05-02T08:49:42.589Z,58.0560
2019-05-02T08:50:44.387Z,58.1842
2019-05-02T08:51:47.335Z,55.0347
2019-05-02T08:52:50.275Z,55.7000
2019-05-02T08:53:56.726Z,54.0520
2019-05-02T08:55:04.395Z,55.3735
2019-05-02T08:56:09.349Z,54.6929
2019-05-02T08:57:12.385Z,54.7417
2019-05-02T08:58:15.975Z,55.1369
2019-05-02T08:59:19.724Z,54.8852
2019-05-02T09:00:23.292Z,55.0546
2019-05-02T09:01:34.823Z,54.7829
2019-05-02T09:02:41.148Z,54.6609
2019-05-02T09:03:54.629Z,54.9218
2019-05-02T09:04:58.343Z,55.7259
2019-05-02T09:06:05.685Z,55.0713
2019-05-02T09:07:06.387Z,56.1303
2019-05-02T09:08:14.171Z,55.0957
2019-05-02T09:09:17.309Z,55.8312
2019-05-02T09:10:20.308Z,55.9930
2019-05-02T09:11:23.339Z,56.2539
2019-05-02T09:12:26.346Z,56.0067
2019-05-02T09:13:29.674Z,55.3658
2019-05-02T09:14:33.305Z,55.3002
2019-05-02T09:15:40.383Z,55.5261
2019-05-02T09:16:44.286Z,54.2611
2019-05-02T09:17:54.422Z,54.8257
2019-05-02T09:18:55.394Z,56.2356
2019-05-02T09:20:02.278Z,55.4162
2019-05-02T09:21:06.322Z,55.5932
2019-05-02T09:22:13.313Z,56.1990
2019-05-02T09:23:17.302Z,55.7137
2019-05-02T09:24:23.275Z,55.8862
2019-05-02T09:25:27.328Z,55.8511
2019-05-02T09:26:36.021Z,56.4446
2019-05-02T09:27:38.334Z,56.5271
2019-05-02T09:28:42.230Z,56.3851
2019-05-02T09:29:45.994Z,56.1059
2019-05-02T09:30:49.296Z,56.5240
2019-05-02T09:31:52.661Z,55.8541
2019-05-02T09:32:57.098Z,55.8785
2019-05-02T09:34:04.326Z,56.0510
2019-05-02T09:35:09.357Z,56.2173
2019-05-02T09:36:12.358Z,56.7758
2019-05-02T09:37:15.329Z,56.9024
2019-05-02T09:38:17.305Z,56.2158
2019-05-02T09:39:22.501Z,56.0876
2019-05-02T09:40:25.355Z,56.9589
2019-05-02T09:41:34.423Z,56.2448
2019-05-02T09:42:36.299Z,56.8658
2019-05-02T09:43:39.375Z,57.4334
2019-05-02T09:44:42.613Z,56.5591
2019-05-02T09:45:45.309Z,56.4920
2019-05-02T09:46:53.014Z,56.2432
2019-05-02T09:48:03.986Z,55.9503
2019-05-02T09:49:10.656Z,56.6247
2019-05-02T09:50:12.846Z,55.6497
2019-05-02T09:51:17.383Z,56.5744
2019-05-02T09:52:22.136Z,55.8053
2019-05-02T09:53:25.632Z,56.2982
2019-05-02T09:54:29.290Z,55.5398
2019-05-02T09:55:32.287Z,54.6548
2019-05-02T09:56:35.301Z,54.5830
2019-05-02T09:57:38.322Z,54.2443
2019-05-02T09:58:42.000Z,55.7137
2019-05-02T09:59:50.624Z,54.5602
2019-05-02T10:00:53.342Z,53.7453
2019-05-02T10:01:56.304Z,54.3313
2019-05-02T10:02:59.348Z,54.0917
2019-05-02T10:04:02.447Z,55.0774
2019-05-02T10:05:05.346Z,55.0713
2019-05-02T10:06:12.653Z,55.6497
2019-05-02T10:07:16.384Z,56.8933
2019-05-02T10:08:19.334Z,57.1054
2019-05-02T10:09:25.719Z,56.8750
2019-05-02T10:10:32.220Z,56.3622
2019-05-02T10:11:35.335Z,55.9609
2019-05-02T10:12:38.363Z,56.1028
2019-05-02T10:13:42.422Z,56.0235
2019-05-02T10:14:46.340Z,57.0855
2019-05-02T10:15:49.324Z,55.9548
2019-05-02T10:16:52.935Z,56.4080
2019-05-02T10:18:07.937Z,55.7855
2019-05-02T10:19:09.434Z,54.7967
2019-05-02T10:20:13.320Z,55.3552
2019-05-02T10:21:17.218Z,55.8358
2019-05-02T10:22:20.345Z,54.9493
2019-05-02T10:23:23.582Z,54.2397
2019-05-02T10:24:27.307Z,53.9788
2019-05-02T10:25:38.326Z,53.0983
2019-05-02T10:26:38.311Z,51.7021
2019-05-02T10:27:46.068Z,52.5002
2019-05-02T10:28:50.751Z,51.6487
2019-05-02T10:29:57.253Z,52.4407
2019-05-02T10:31:02.077Z,52.0729
2019-05-02T10:32:07.657Z,50.2068
2019-05-02T10:33:12.379Z,50.4021
2019-05-02T10:34:17.663Z,50.7790
2019-05-02T10:35:22.903Z,50.8782
2019-05-02T10:36:26.309Z,50.2098
2019-05-02T10:37:30.619Z,50.4952
2019-05-02T10:38:37.296Z,50.1106
2019-05-02T10:39:42.230Z,50.7546
2019-05-02T10:40:48.429Z,50.2342
2019-05-02T10:41:53.315Z,50.7881
2019-05-02T10:42:56.331Z,51.2093
2019-05-02T10:43:59.668Z,50.3792
2019-05-02T10:45:07.483Z,50.2113
2019-05-02T10:46:12.597Z,49.8131
2019-05-02T10:47:15.298Z,48.7770
2019-05-02T10:48:27.459Z,47.9118
2019-05-02T10:49:26.309Z,48.1010
2019-05-02T10:50:28.369Z,49.6849
2019-05-02T10:51:31.691Z,49.1356
2019-05-02T10:52:35.318Z,49.7017
2019-05-02T10:53:38.273Z,49.9947
2019-05-02T10:54:42.178Z,50.2007
2019-05-02T10:55:45.321Z,49.1081
2019-05-02T10:56:48.323Z,49.8634
2019-05-02T10:57:52.698Z,50.0954
2019-05-02T10:58:56.329Z,53.6614
2019-05-02T10:59:59.318Z,49.8909
2019-05-02T11:01:02.365Z,50.5455
2019-05-02T11:02:05.301Z,50.6310
2019-05-02T11:03:08.310Z,49.5918
2019-05-02T11:04:12.865Z,49.3217
2019-05-02T11:05:16.970Z,49.4133
2019-05-02T11:06:24.356Z,50.2342
2019-05-02T11:07:27.312Z,49.6559
2019-05-02T11:08:31.941Z,48.8823
2019-05-02T11:09:35.282Z,49.3736
2019-05-02T11:10:38.330Z,49.7154
2019-05-02T11:11:42.374Z,49.0761
2019-05-02T11:12:47.015Z,49.4606
2019-05-02T11:13:53.422Z,50.1015
2019-05-02T11:14:58.320Z,48.4245
2019-05-02T11:16:01.684Z,49.5369
2019-05-02T11:17:09.087Z,49.9168
2019-05-02T11:18:13.341Z,49.7429
2019-05-02T11:19:16.281Z,49.2531
2019-05-02T11:20:19.302Z,49.9596
2019-05-02T11:21:22.937Z,49.1295
2019-05-02T11:22:26.329Z,47.8569
2019-05-02T11:23:29.371Z,48.2063
2019-05-02T11:24:32.327Z,48.6091
2019-05-02T11:25:35.295Z,48.5069
2019-05-02T11:26:38.315Z,47.6890
2019-05-02T11:27:41.894Z,49.3629
2019-05-02T11:28:44.317Z,49.6284
2019-05-02T11:29:47.323Z,49.9077
2019-05-02T11:30:52.307Z,49.1386
2019-05-02T11:31:55.294Z,48.8090
2019-05-02T11:32:58.352Z,49.2714
2019-05-02T11:34:01.932Z,48.9281
2019-05-02T11:35:05.283Z,47.5425
2019-05-02T11:36:08.321Z,47.5929
2019-05-02T11:37:12.054Z,48.5084
2019-05-02T11:38:15.840Z,48.1270
2019-05-02T11:39:27.180Z,49.0791
2019-05-02T11:40:27.312Z,49.4957
2019-05-02T11:41:31.797Z,48.1270
2019-05-02T11:42:35.291Z,47.9362
2019-05-02T11:43:41.414Z,48.2795
2019-05-02T11:44:45.337Z,48.6076
2019-05-02T11:45:48.322Z,49.2134
2019-05-02T11:46:52.089Z,50.2251
2019-05-02T11:47:56.102Z,48.1971
2019-05-02T11:49:03.355Z,48.5267
2019-05-02T11:50:06.337Z,47.8950
2019-05-02T11:51:14.884Z,48.6961
2019-05-02T11:52:17.316Z,48.0629
2019-05-02T11:53:27.000Z,47.7974
2019-05-02T11:54:29.352Z,47.6463
2019-05-02T11:55:32.330Z,47.2801
2019-05-02T11:56:35.315Z,47.0390
2019-05-02T11:57:37.315Z,47.4006
2019-05-02T11:58:47.863Z,48.9601
2019-05-02T11:59:48.367Z,48.6091
2019-05-02T12:00:52.288Z,48.4901
2019-05-02T12:01:59.437Z,49.2683
2019-05-02T12:03:03.308Z,48.7037
2019-05-02T12:04:11.711Z,49.4636
2019-05-02T12:05:14.320Z,49.1615
2019-05-02T12:06:19.617Z,48.7510
2019-05-02T12:07:23.324Z,48.4077
2019-05-02T12:08:26.318Z,48.5039
2019-05-02T12:09:29.298Z,48.8548
2019-05-02T12:10:36.524Z,48.8045
2019-05-02T12:11:41.820Z,49.0532
2019-05-02T12:12:45.319Z,49.1447
2019-05-02T12:13:52.909Z,48.6763
2019-05-02T12:14:58.318Z,49.5064
2019-05-02T12:16:02.693Z,50.1732
2019-05-02T12:17:05.393Z,50.1060
2019-05-02T12:18:08.291Z,50.3029
2019-05-02T12:19:14.351Z,50.5226
2019-05-02T12:20:18.335Z,51.9829
2019-05-02T12:21:22.895Z,53.4981
2019-05-02T12:22:26.307Z,54.8150
2019-05-02T12:23:29.313Z,57.8149
2019-05-02T12:24:31.873Z,59.2737
2019-05-02T12:25:35.325Z,60.4562
2019-05-02T12:26:38.331Z,59.5163
2019-05-02T12:27:42.463Z,60.0793
2019-05-02T12:28:45.288Z,61.6693
2019-05-02T12:29:57.857Z,62.6703
2019-05-02T12:30:58.297Z,62.0127
2019-05-02T12:32:02.598Z,63.5508
2019-05-02T12:33:06.312Z,62.5238
2019-05-02T12:34:09.277Z,63.3219
2019-05-02T12:35:12.318Z,63.0564
2019-05-02T12:36:15.280Z,63.7095
2019-05-02T12:37:18.379Z,63.7980
2019-05-02T12:38:23.081Z,63.6240
2019-05-02T12:39:26.322Z,64.2191
2019-05-02T12:40:29.325Z,64.3000
2019-05-02T12:41:33.082Z,64.2969
2019-05-02T12:42:36.342Z,64.3229
2019-05-02T12:43:39.318Z,64.4251
2019-05-02T12:44:42.700Z,64.5472
2019-05-02T12:45:45.326Z,65.3574
2019-05-02T12:46:48.323Z,66.4347
2019-05-02T12:47:52.304Z,67.1244
2019-05-02T12:48:55.294Z,69.5750
2019-05-02T12:49:58.344Z,69.4286
2019-05-02T12:51:01.997Z,69.1707
2019-05-02T12:52:05.339Z,68.5313
2019-05-02T12:53:08.317Z,69.5705
2019-05-02T12:54:12.370Z,70.5898
2019-05-02T12:55:15.277Z,70.0923
2019-05-02T12:56:18.304Z,70.6172
2019-05-02T12:57:21.978Z,71.4565
2019-05-02T12:58:25.341Z,71.0658
2019-05-02T12:59:28.300Z,71.9356
2019-05-02T13:00:31.988Z,71.2352